sensor_id;sensor_type;location;lat;lon;timestamp;P1;durP1;ratioP1;P2;durP2;ratioP2
50319;SDS011;36226;53.464;9.852;2022-10-26T00:00:43;12.13;;;5.13;;
50319;SDS011;36226;53.464;9.852;2022-10-26T00:03:09;11.70;;;5.07;;
50319;SDS011;36226;53.464;9.852;2022-10-26T00:05:34;10.10;;;5.30;;
50319;SDS011;36226;53.464;9.852;2022-10-26T00:08:00;9.20;;;4.72;;
50319;SDS011;36226;53.464;9.852;2022-10-26T00:10:26;7.22;;;5.03;;
50319;SDS011;36226;53.464;9.852;2022-10-26T00:12:51;13.35;;;5.25;;
50319;SDS011;36226;53.464;9.852;2022-10-26T00:15:17;13.75;;;5.50;;
50319;SDS011;36226;53.464;9.852;2022-10-26T00:17:42;10.43;;;5.20;;
50319;SDS011;36226;53.464;9.852;2022-10-26T00:20:08;13.98;;;5.43;;
50319;SDS011;36226;53.464;9.852;2022-10-26T00:22:34;14.75;;;5.35;;
50319;SDS011;36226;53.464;9.852;2022-10-26T00:24:59;13.70;;;5.55;;
50319;SDS011;36226;53.464;9.852;2022-10-26T00:27:24;11.73;;;5.40;;
50319;SDS011;36226;53.464;9.852;2022-10-26T00:29:49;10.65;;;5.28;;
50319;SDS011;36226;53.464;9.852;2022-10-26T00:32:15;12.75;;;5.43;;
50319;SDS011;36226;53.464;9.852;2022-10-26T00:34:40;10.07;;;5.22;;
50319;SDS011;36226;53.464;9.852;2022-10-26T00:37:05;11.52;;;4.68;;
50319;SDS011;36226;53.464;9.852;2022-10-26T00:39:31;9.63;;;4.90;;
50319;SDS011;36226;53.464;9.852;2022-10-26T00:41:56;9.27;;;5.05;;
50319;SDS011;36226;53.464;9.852;2022-10-26T00:47:13;7.97;;;4.15;;
50319;SDS011;36226;53.464;9.852;2022-10-26T00:49:40;9.48;;;4.60;;
50319;SDS011;36226;53.464;9.852;2022-10-26T00:52:10;9.07;;;4.78;;
50319;SDS011;36226;53.464;9.852;2022-10-26T00:54:38;7.40;;;4.18;;
50319;SDS011;36226;53.464;9.852;2022-10-26T00:57:03;9.63;;;4.07;;
50319;SDS011;36226;53.464;9.852;2022-10-26T00:59:29;7.97;;;4.25;;
50319;SDS011;36226;53.464;9.852;2022-10-26T01:01:55;12.32;;;4.53;;
50319;SDS011;36226;53.464;9.852;2022-10-26T01:04:20;6.78;;;4.35;;
50319;SDS011;36226;53.464;9.852;2022-10-26T01:06:46;7.68;;;3.67;;
50319;SDS011;36226;53.464;9.852;2022-10-26T01:09:11;7.28;;;3.53;;
50319;SDS011;36226;53.464;9.852;2022-10-26T01:11:37;6.60;;;3.67;;
50319;SDS011;36226;53.464;9.852;2022-10-26T01:14:03;8.43;;;3.30;;
50319;SDS011;36226;53.464;9.852;2022-10-26T01:16:34;7.47;;;3.30;;
50319;SDS011;36226;53.464;9.852;2022-10-26T01:22:06;9.02;;;3.30;;
50319;SDS011;36226;53.464;9.852;2022-10-26T01:24:40;5.72;;;3.20;;
50319;SDS011;36226;53.464;9.852;2022-10-26T01:40:58;4.10;;;2.67;;
50319;SDS011;36226;53.464;9.852;2022-10-26T01:43:29;8.88;;;3.20;;
50319;SDS011;36226;53.464;9.852;2022-10-26T01:45:58;4.40;;;2.90;;
50319;SDS011;36226;53.464;9.852;2022-10-26T01:48:25;4.00;;;3.08;;
50319;SDS011;36226;53.464;9.852;2022-10-26T01:50:52;5.72;;;3.22;;
50319;SDS011;36226;53.464;9.852;2022-10-26T01:53:18;5.82;;;3.05;;
50319;SDS011;36226;53.464;9.852;2022-10-26T01:55:50;7.13;;;3.22;;
50319;SDS011;36226;53.464;9.852;2022-10-26T02:01:30;10.63;;;3.25;;
50319;SDS011;36226;53.464;9.852;2022-10-26T02:06:40;8.82;;;3.40;;
50319;SDS011;36226;53.464;9.852;2022-10-26T02:09:22;8.40;;;3.17;;
50319;SDS011;36226;53.464;9.852;2022-10-26T02:11:54;10.23;;;3.33;;
50319;SDS011;36226;53.464;9.852;2022-10-26T02:14:38;5.22;;;3.20;;
50319;SDS011;36226;53.464;9.852;2022-10-26T02:19:31;6.82;;;3.40;;
50319;SDS011;36226;53.464;9.852;2022-10-26T02:22:04;7.93;;;3.33;;
50319;SDS011;36226;53.464;9.852;2022-10-26T02:24:34;7.97;;;3.50;;
50319;SDS011;36226;53.464;9.852;2022-10-26T02:27:03;7.43;;;3.50;;
50319;SDS011;36226;53.464;9.852;2022-10-26T02:29:30;7.97;;;4.00;;
50319;SDS011;36226;53.464;9.852;2022-10-26T02:31:55;14.93;;;6.22;;
50319;SDS011;36226;53.464;9.852;2022-10-26T02:34:21;10.35;;;4.50;;
50319;SDS011;36226;53.464;9.852;2022-10-26T02:36:49;17.35;;;5.18;;
50319;SDS011;36226;53.464;9.852;2022-10-26T02:39:16;11.85;;;5.65;;
50319;SDS011;36226;53.464;9.852;2022-10-26T02:41:42;9.05;;;5.28;;
50319;SDS011;36226;53.464;9.852;2022-10-26T02:44:20;8.38;;;5.90;;
50319;SDS011;36226;53.464;9.852;2022-10-26T02:46:47;9.15;;;5.57;;
50319;SDS011;36226;53.464;9.852;2022-10-26T02:49:13;11.98;;;6.35;;
50319;SDS011;36226;53.464;9.852;2022-10-26T02:57:01;13.07;;;5.78;;
50319;SDS011;36226;53.464;9.852;2022-10-26T02:59:39;12.80;;;6.43;;
50319;SDS011;36226;53.464;9.852;2022-10-26T03:02:06;12.95;;;6.63;;
50319;SDS011;36226;53.464;9.852;2022-10-26T03:04:32;16.33;;;7.25;;
50319;SDS011;36226;53.464;9.852;2022-10-26T03:07:01;17.02;;;6.90;;
50319;SDS011;36226;53.464;9.852;2022-10-26T03:09:26;15.02;;;7.40;;
50319;SDS011;36226;53.464;9.852;2022-10-26T03:11:52;14.48;;;6.38;;
50319;SDS011;36226;53.464;9.852;2022-10-26T03:14:18;15.60;;;6.90;;
50319;SDS011;36226;53.464;9.852;2022-10-26T03:16:43;14.52;;;7.07;;
50319;SDS011;36226;53.464;9.852;2022-10-26T03:19:09;10.73;;;6.35;;
50319;SDS011;36226;53.464;9.852;2022-10-26T03:21:34;12.82;;;6.68;;
50319;SDS011;36226;53.464;9.852;2022-10-26T03:23:59;12.88;;;7.13;;
50319;SDS011;36226;53.464;9.852;2022-10-26T03:26:25;13.30;;;7.15;;
50319;SDS011;36226;53.464;9.852;2022-10-26T03:28:50;11.68;;;6.25;;
50319;SDS011;36226;53.464;9.852;2022-10-26T03:31:15;14.68;;;6.90;;
50319;SDS011;36226;53.464;9.852;2022-10-26T03:33:41;16.08;;;7.15;;
50319;SDS011;36226;53.464;9.852;2022-10-26T03:36:06;13.30;;;6.97;;
50319;SDS011;36226;53.464;9.852;2022-10-26T03:38:32;16.35;;;6.90;;
50319;SDS011;36226;53.464;9.852;2022-10-26T03:40:58;14.95;;;8.30;;
50319;SDS011;36226;53.464;9.852;2022-10-26T03:43:23;15.35;;;6.75;;
50319;SDS011;36226;53.464;9.852;2022-10-26T03:45:48;11.80;;;5.68;;
50319;SDS011;36226;53.464;9.852;2022-10-26T03:48:14;14.38;;;6.32;;
50319;SDS011;36226;53.464;9.852;2022-10-26T03:50:39;9.85;;;6.30;;
50319;SDS011;36226;53.464;9.852;2022-10-26T03:53:05;12.48;;;6.38;;
50319;SDS011;36226;53.464;9.852;2022-10-26T03:55:30;12.10;;;6.30;;
50319;SDS011;36226;53.464;9.852;2022-10-26T03:57:55;12.88;;;6.38;;
50319;SDS011;36226;53.464;9.852;2022-10-26T04:00:21;10.32;;;6.20;;
50319;SDS011;36226;53.464;9.852;2022-10-26T04:02:52;10.65;;;5.85;;
50319;SDS011;36226;53.464;9.852;2022-10-26T04:05:19;10.50;;;6.25;;
50319;SDS011;36226;53.464;9.852;2022-10-26T04:07:51;8.70;;;5.80;;
50319;SDS011;36226;53.464;9.852;2022-10-26T04:10:17;13.57;;;6.50;;
50319;SDS011;36226;53.464;9.852;2022-10-26T04:12:42;14.60;;;6.35;;
50319;SDS011;36226;53.464;9.852;2022-10-26T04:15:08;13.25;;;6.55;;
50319;SDS011;36226;53.464;9.852;2022-10-26T04:17:34;11.10;;;6.05;;
50319;SDS011;36226;53.464;9.852;2022-10-26T04:20:02;10.10;;;6.22;;
50319;SDS011;36226;53.464;9.852;2022-10-26T04:22:30;10.35;;;6.07;;
50319;SDS011;36226;53.464;9.852;2022-10-26T04:24:56;13.13;;;6.18;;
50319;SDS011;36226;53.464;9.852;2022-10-26T04:27:21;10.38;;;6.18;;
50319;SDS011;36226;53.464;9.852;2022-10-26T04:29:46;11.40;;;6.13;;
50319;SDS011;36226;53.464;9.852;2022-10-26T04:32:12;15.23;;;6.85;;
50319;SDS011;36226;53.464;9.852;2022-10-26T04:34:37;11.38;;;6.60;;
50319;SDS011;36226;53.464;9.852;2022-10-26T04:37:02;11.48;;;5.75;;
50319;SDS011;36226;53.464;9.852;2022-10-26T04:39:28;13.80;;;6.47;;
50319;SDS011;36226;53.464;9.852;2022-10-26T04:41:53;15.90;;;7.20;;
50319;SDS011;36226;53.464;9.852;2022-10-26T04:44:18;17.60;;;6.82;;
50319;SDS011;36226;53.464;9.852;2022-10-26T04:46:44;13.30;;;6.40;;
50319;SDS011;36226;53.464;9.852;2022-10-26T04:49:09;11.57;;;6.35;;
50319;SDS011;36226;53.464;9.852;2022-10-26T04:51:34;10.18;;;6.22;;
50319;SDS011;36226;53.464;9.852;2022-10-26T04:54:00;12.48;;;6.32;;
50319;SDS011;36226;53.464;9.852;2022-10-26T04:56:27;12.38;;;6.05;;
50319;SDS011;36226;53.464;9.852;2022-10-26T04:58:52;14.85;;;6.43;;
50319;SDS011;36226;53.464;9.852;2022-10-26T05:01:18;9.80;;;5.68;;
50319;SDS011;36226;53.464;9.852;2022-10-26T05:03:43;11.02;;;6.20;;
50319;SDS011;36226;53.464;9.852;2022-10-26T05:06:09;11.35;;;6.50;;
50319;SDS011;36226;53.464;9.852;2022-10-26T05:08:34;10.57;;;5.90;;
50319;SDS011;36226;53.464;9.852;2022-10-26T05:10:59;13.77;;;5.85;;
50319;SDS011;36226;53.464;9.852;2022-10-26T05:13:25;13.35;;;6.43;;
50319;SDS011;36226;53.464;9.852;2022-10-26T05:15:53;8.43;;;5.45;;
50319;SDS011;36226;53.464;9.852;2022-10-26T05:18:18;10.30;;;6.55;;
50319;SDS011;36226;53.464;9.852;2022-10-26T05:20:44;10.80;;;5.90;;
50319;SDS011;36226;53.464;9.852;2022-10-26T05:23:10;10.55;;;6.28;;
50319;SDS011;36226;53.464;9.852;2022-10-26T05:25:36;10.65;;;5.93;;
50319;SDS011;36226;53.464;9.852;2022-10-26T05:28:02;12.57;;;6.40;;
50319;SDS011;36226;53.464;9.852;2022-10-26T05:30:33;10.52;;;5.68;;
50319;SDS011;36226;53.464;9.852;2022-10-26T05:32:59;11.82;;;5.82;;
50319;SDS011;36226;53.464;9.852;2022-10-26T05:35:27;11.75;;;6.60;;
50319;SDS011;36226;53.464;9.852;2022-10-26T05:37:52;8.85;;;5.88;;
50319;SDS011;36226;53.464;9.852;2022-10-26T05:40:18;11.93;;;6.32;;
50319;SDS011;36226;53.464;9.852;2022-10-26T05:42:44;13.60;;;6.28;;
50319;SDS011;36226;53.464;9.852;2022-10-26T05:45:09;16.50;;;7.32;;
50319;SDS011;36226;53.464;9.852;2022-10-26T05:47:38;11.63;;;6.65;;
50319;SDS011;36226;53.464;9.852;2022-10-26T05:50:05;12.65;;;5.80;;
50319;SDS011;36226;53.464;9.852;2022-10-26T05:52:36;11.20;;;6.65;;
50319;SDS011;36226;53.464;9.852;2022-10-26T05:55:03;9.30;;;5.78;;
50319;SDS011;36226;53.464;9.852;2022-10-26T05:57:28;15.02;;;5.95;;
50319;SDS011;36226;53.464;9.852;2022-10-26T05:59:54;11.57;;;5.82;;
50319;SDS011;36226;53.464;9.852;2022-10-26T06:02:30;13.85;;;6.55;;
50319;SDS011;36226;53.464;9.852;2022-10-26T06:05:17;10.98;;;6.00;;
50319;SDS011;36226;53.464;9.852;2022-10-26T06:07:45;9.93;;;5.95;;
50319;SDS011;36226;53.464;9.852;2022-10-26T06:10:11;8.82;;;5.68;;
50319;SDS011;36226;53.464;9.852;2022-10-26T06:12:37;8.77;;;5.18;;
50319;SDS011;36226;53.464;9.852;2022-10-26T06:15:02;13.40;;;7.10;;
50319;SDS011;36226;53.464;9.852;2022-10-26T06:29:16;10.60;;;6.57;;
50319;SDS011;36226;53.464;9.852;2022-10-26T06:31:47;12.52;;;6.60;;
50319;SDS011;36226;53.464;9.852;2022-10-26T06:34:14;11.23;;;6.38;;
50319;SDS011;36226;53.464;9.852;2022-10-26T06:36:46;10.13;;;6.50;;
50319;SDS011;36226;53.464;9.852;2022-10-26T06:39:11;11.77;;;6.45;;
50319;SDS011;36226;53.464;9.852;2022-10-26T06:41:38;11.52;;;6.57;;
50319;SDS011;36226;53.464;9.852;2022-10-26T06:44:04;11.30;;;6.53;;
50319;SDS011;36226;53.464;9.852;2022-10-26T06:51:56;9.77;;;6.60;;
50319;SDS011;36226;53.464;9.852;2022-10-26T06:56:55;12.93;;;7.45;;
50319;SDS011;36226;53.464;9.852;2022-10-26T06:59:39;11.90;;;6.72;;
50319;SDS011;36226;53.464;9.852;2022-10-26T07:02:09;10.68;;;6.97;;
50319;SDS011;36226;53.464;9.852;2022-10-26T07:04:35;12.68;;;7.78;;
50319;SDS011;36226;53.464;9.852;2022-10-26T07:07:01;11.30;;;7.05;;
50319;SDS011;36226;53.464;9.852;2022-10-26T07:09:26;14.20;;;7.53;;
50319;SDS011;36226;53.464;9.852;2022-10-26T07:11:51;11.00;;;6.90;;
50319;SDS011;36226;53.464;9.852;2022-10-26T07:14:17;14.23;;;6.60;;
50319;SDS011;36226;53.464;9.852;2022-10-26T07:16:42;11.98;;;6.63;;
50319;SDS011;36226;53.464;9.852;2022-10-26T07:19:07;10.48;;;6.25;;
50319;SDS011;36226;53.464;9.852;2022-10-26T07:21:33;13.45;;;7.43;;
50319;SDS011;36226;53.464;9.852;2022-10-26T07:23:58;12.57;;;6.38;;
50319;SDS011;36226;53.464;9.852;2022-10-26T07:26:23;11.25;;;6.75;;
50319;SDS011;36226;53.464;9.852;2022-10-26T07:28:56;10.63;;;5.70;;
50319;SDS011;36226;53.464;9.852;2022-10-26T07:31:21;12.13;;;5.97;;
50319;SDS011;36226;53.464;9.852;2022-10-26T07:33:46;11.30;;;6.35;;
50319;SDS011;36226;53.464;9.852;2022-10-26T07:36:12;12.30;;;6.28;;
50319;SDS011;36226;53.464;9.852;2022-10-26T07:38:37;13.23;;;6.32;;
50319;SDS011;36226;53.464;9.852;2022-10-26T07:41:03;11.02;;;6.25;;
50319;SDS011;36226;53.464;9.852;2022-10-26T07:43:29;10.85;;;5.95;;
50319;SDS011;36226;53.464;9.852;2022-10-26T07:45:54;9.32;;;5.50;;
50319;SDS011;36226;53.464;9.852;2022-10-26T07:48:20;10.93;;;5.95;;
50319;SDS011;36226;53.464;9.852;2022-10-26T07:50:45;10.98;;;5.53;;
50319;SDS011;36226;53.464;9.852;2022-10-26T07:53:10;12.05;;;6.40;;
50319;SDS011;36226;53.464;9.852;2022-10-26T07:55:36;9.00;;;5.35;;
50319;SDS011;36226;53.464;9.852;2022-10-26T07:58:01;9.75;;;5.75;;
50319;SDS011;36226;53.464;9.852;2022-10-26T08:00:27;10.35;;;5.32;;
50319;SDS011;36226;53.464;9.852;2022-10-26T08:02:53;9.93;;;5.35;;
50319;SDS011;36226;53.464;9.852;2022-10-26T08:05:19;8.82;;;6.00;;
50319;SDS011;36226;53.464;9.852;2022-10-26T08:07:44;12.23;;;6.30;;
50319;SDS011;36226;53.464;9.852;2022-10-26T08:10:10;10.38;;;5.22;;
50319;SDS011;36226;53.464;9.852;2022-10-26T08:12:36;9.80;;;5.05;;
50319;SDS011;36226;53.464;9.852;2022-10-26T08:15:05;9.95;;;4.95;;
50319;SDS011;36226;53.464;9.852;2022-10-26T08:17:31;11.95;;;4.82;;
50319;SDS011;36226;53.464;9.852;2022-10-26T08:19:56;9.77;;;5.00;;
50319;SDS011;36226;53.464;9.852;2022-10-26T08:22:22;9.82;;;4.82;;
50319;SDS011;36226;53.464;9.852;2022-10-26T08:24:47;9.50;;;4.20;;
50319;SDS011;36226;53.464;9.852;2022-10-26T08:27:13;11.50;;;4.88;;
50319;SDS011;36226;53.464;9.852;2022-10-26T08:29:39;8.38;;;3.80;;
50319;SDS011;36226;53.464;9.852;2022-10-26T08:32:04;8.52;;;3.97;;
50319;SDS011;36226;53.464;9.852;2022-10-26T08:34:30;10.40;;;4.53;;
50319;SDS011;36226;53.464;9.852;2022-10-26T08:36:55;9.73;;;5.03;;
50319;SDS011;36226;53.464;9.852;2022-10-26T08:39:20;7.95;;;4.05;;
50319;SDS011;36226;53.464;9.852;2022-10-26T08:41:46;8.85;;;3.75;;
50319;SDS011;36226;53.464;9.852;2022-10-26T08:47:10;9.60;;;3.95;;
50319;SDS011;36226;53.464;9.852;2022-10-26T08:49:44;5.53;;;3.13;;
50319;SDS011;36226;53.464;9.852;2022-10-26T08:52:16;6.57;;;3.38;;
50319;SDS011;36226;53.464;9.852;2022-10-26T08:54:53;4.93;;;3.10;;
50319;SDS011;36226;53.464;9.852;2022-10-26T08:59:58;6.22;;;3.05;;
50319;SDS011;36226;53.464;9.852;2022-10-26T09:02:25;6.90;;;2.85;;
50319;SDS011;36226;53.464;9.852;2022-10-26T09:04:51;4.82;;;2.65;;
50319;SDS011;36226;53.464;9.852;2022-10-26T09:12:57;7.22;;;2.88;;
50319;SDS011;36226;53.464;9.852;2022-10-26T09:29:29;5.25;;;2.20;;
50319;SDS011;36226;53.464;9.852;2022-10-26T09:32:00;3.95;;;2.10;;
50319;SDS011;36226;53.464;9.852;2022-10-26T09:36:55;6.60;;;2.05;;
50319;SDS011;36226;53.464;9.852;2022-10-26T09:42:10;3.72;;;2.17;;
50319;SDS011;36226;53.464;9.852;2022-10-26T09:44:43;6.20;;;2.42;;
50319;SDS011;36226;53.464;9.852;2022-10-26T09:47:13;4.57;;;1.98;;
50319;SDS011;36226;53.464;9.852;2022-10-26T09:49:46;4.43;;;2.03;;
50319;SDS011;36226;53.464;9.852;2022-10-26T09:52:14;4.07;;;2.17;;
50319;SDS011;36226;53.464;9.852;2022-10-26T09:54:39;6.32;;;1.90;;
50319;SDS011;36226;53.464;9.852;2022-10-26T09:57:05;2.75;;;1.67;;
50319;SDS011;36226;53.464;9.852;2022-10-26T09:59:32;4.35;;;1.80;;
50319;SDS011;36226;53.464;9.852;2022-10-26T10:01:59;6.30;;;1.88;;
50319;SDS011;36226;53.464;9.852;2022-10-26T10:04:24;12.32;;;2.22;;
50319;SDS011;36226;53.464;9.852;2022-10-26T10:09:36;5.93;;;1.90;;
50319;SDS011;36226;53.464;9.852;2022-10-26T10:12:02;7.60;;;2.03;;
50319;SDS011;36226;53.464;9.852;2022-10-26T10:14:29;4.88;;;1.83;;
50319;SDS011;36226;53.464;9.852;2022-10-26T10:17:02;6.55;;;1.77;;
50319;SDS011;36226;53.464;9.852;2022-10-26T10:19:30;5.60;;;1.80;;
50319;SDS011;36226;53.464;9.852;2022-10-26T10:22:00;4.38;;;1.58;;
50319;SDS011;36226;53.464;9.852;2022-10-26T10:24:34;3.47;;;1.55;;
50319;SDS011;36226;53.464;9.852;2022-10-26T10:29:33;3.00;;;1.38;;
50319;SDS011;36226;53.464;9.852;2022-10-26T10:32:03;4.72;;;1.38;;
50319;SDS011;36226;53.464;9.852;2022-10-26T10:34:29;2.60;;;1.67;;
50319;SDS011;36226;53.464;9.852;2022-10-26T10:36:55;4.75;;;1.40;;
50319;SDS011;36226;53.464;9.852;2022-10-26T10:39:33;5.85;;;1.65;;
50319;SDS011;36226;53.464;9.852;2022-10-26T10:42:04;2.90;;;1.48;;
50319;SDS011;36226;53.464;9.852;2022-10-26T10:44:35;3.83;;;1.63;;
50319;SDS011;36226;53.464;9.852;2022-10-26T10:47:06;4.55;;;1.63;;
50319;SDS011;36226;53.464;9.852;2022-10-26T10:49:32;3.17;;;1.80;;
50319;SDS011;36226;53.464;9.852;2022-10-26T10:51:58;4.45;;;1.48;;
50319;SDS011;36226;53.464;9.852;2022-10-26T10:57:07;2.42;;;1.48;;
50319;SDS011;36226;53.464;9.852;2022-10-26T10:59:43;3.92;;;1.33;;
50319;SDS011;36226;53.464;9.852;2022-10-26T11:02:24;3.38;;;0.90;;
50319;SDS011;36226;53.464;9.852;2022-10-26T11:13:32;5.60;;;1.33;;
50319;SDS011;36226;53.464;9.852;2022-10-26T11:16:06;5.95;;;1.60;;
50319;SDS011;36226;53.464;9.852;2022-10-26T11:19:12;3.13;;;1.30;;
50319;SDS011;36226;53.464;9.852;2022-10-26T11:21:35;4.90;;;1.35;;
50319;SDS011;36226;53.464;9.852;2022-10-26T11:24:08;3.00;;;1.20;;
50319;SDS011;36226;53.464;9.852;2022-10-26T11:26:38;7.63;;;1.45;;
50319;SDS011;36226;53.464;9.852;2022-10-26T11:29:16;2.72;;;0.90;;
50319;SDS011;36226;53.464;9.852;2022-10-26T11:31:58;3.03;;;1.23;;
50319;SDS011;36226;53.464;9.852;2022-10-26T11:37:11;3.60;;;1.48;;
50319;SDS011;36226;53.464;9.852;2022-10-26T11:39:49;3.20;;;1.17;;
50319;SDS011;36226;53.464;9.852;2022-10-26T11:42:41;2.45;;;0.95;;
50319;SDS011;36226;53.464;9.852;2022-10-26T11:45:12;4.13;;;1.20;;
50319;SDS011;36226;53.464;9.852;2022-10-26T11:50:29;3.97;;;1.30;;
50319;SDS011;36226;53.464;9.852;2022-10-26T11:53:01;6.88;;;1.23;;
50319;SDS011;36226;53.464;9.852;2022-10-26T11:55:37;4.63;;;1.20;;
50319;SDS011;36226;53.464;9.852;2022-10-26T11:58:09;5.75;;;1.30;;
50319;SDS011;36226;53.464;9.852;2022-10-26T12:00:39;3.63;;;1.20;;
50319;SDS011;36226;53.464;9.852;2022-10-26T12:03:14;3.10;;;1.20;;
50319;SDS011;36226;53.464;9.852;2022-10-26T12:05:47;5.00;;;1.40;;
50319;SDS011;36226;53.464;9.852;2022-10-26T12:13:34;6.32;;;1.23;;
50319;SDS011;36226;53.464;9.852;2022-10-26T12:16:16;3.15;;;1.15;;
50319;SDS011;36226;53.464;9.852;2022-10-26T12:19:05;5.30;;;0.90;;
50319;SDS011;36226;53.464;9.852;2022-10-26T12:21:53;9.70;;;1.33;;
50319;SDS011;36226;53.464;9.852;2022-10-26T12:32:48;3.13;;;1.15;;
50319;SDS011;36226;53.464;9.852;2022-10-26T12:34:57;4.18;;;1.10;;
50319;SDS011;36226;53.464;9.852;2022-10-26T12:37:29;3.80;;;1.00;;
50319;SDS011;36226;53.464;9.852;2022-10-26T12:42:54;5.40;;;1.02;;
50319;SDS011;36226;53.464;9.852;2022-10-26T12:45:21;2.03;;;0.75;;
50319;SDS011;36226;53.464;9.852;2022-10-26T13:00:29;1.80;;;0.73;;
50319;SDS011;36226;53.464;9.852;2022-10-26T13:08:20;2.88;;;0.60;;
50319;SDS011;36226;53.464;9.852;2022-10-26T13:11:02;3.17;;;0.95;;
50319;SDS011;36226;53.464;9.852;2022-10-26T13:13:29;4.15;;;0.85;;
50319;SDS011;36226;53.464;9.852;2022-10-26T13:15:56;3.33;;;0.90;;
50319;SDS011;36226;53.464;9.852;2022-10-26T13:18:22;6.25;;;1.10;;
50319;SDS011;36226;53.464;9.852;2022-10-26T13:23:32;3.65;;;0.93;;
50319;SDS011;36226;53.464;9.852;2022-10-26T13:31:04;2.63;;;1.58;;
50319;SDS011;36226;53.464;9.852;2022-10-26T13:33:35;2.90;;;1.02;;
50319;SDS011;36226;53.464;9.852;2022-10-26T13:36:10;3.00;;;0.70;;
50319;SDS011;36226;53.464;9.852;2022-10-26T13:38:41;3.13;;;0.80;;
50319;SDS011;36226;53.464;9.852;2022-10-26T13:41:14;1.42;;;0.55;;
50319;SDS011;36226;53.464;9.852;2022-10-26T13:43:43;3.58;;;0.70;;
50319;SDS011;36226;53.464;9.852;2022-10-26T13:46:17;4.93;;;1.00;;
50319;SDS011;36226;53.464;9.852;2022-10-26T13:48:50;2.05;;;0.60;;
50319;SDS011;36226;53.464;9.852;2022-10-26T13:51:22;5.15;;;1.70;;
50319;SDS011;36226;53.464;9.852;2022-10-26T13:53:53;1.15;;;0.60;;
50319;SDS011;36226;53.464;9.852;2022-10-26T13:56:32;3.65;;;1.33;;
50319;SDS011;36226;53.464;9.852;2022-10-26T13:59:11;6.70;;;0.82;;
50319;SDS011;36226;53.464;9.852;2022-10-26T14:01:40;3.25;;;1.02;;
50319;SDS011;36226;53.464;9.852;2022-10-26T14:04:15;2.75;;;1.00;;
50319;SDS011;36226;53.464;9.852;2022-10-26T14:06:42;2.58;;;0.80;;
50319;SDS011;36226;53.464;9.852;2022-10-26T14:09:16;3.63;;;0.80;;
50319;SDS011;36226;53.464;9.852;2022-10-26T14:11:44;2.40;;;0.80;;
50319;SDS011;36226;53.464;9.852;2022-10-26T14:14:29;3.95;;;0.80;;
50319;SDS011;36226;53.464;9.852;2022-10-26T14:16:56;3.47;;;0.88;;
50319;SDS011;36226;53.464;9.852;2022-10-26T14:19:29;1.48;;;0.70;;
50319;SDS011;36226;53.464;9.852;2022-10-26T14:21:56;3.50;;;0.70;;
50319;SDS011;36226;53.464;9.852;2022-10-26T14:24:27;2.60;;;1.33;;
50319;SDS011;36226;53.464;9.852;2022-10-26T14:26:57;2.55;;;0.90;;
50319;SDS011;36226;53.464;9.852;2022-10-26T14:29:23;2.33;;;0.93;;
50319;SDS011;36226;53.464;9.852;2022-10-26T14:31:50;2.13;;;0.80;;
50319;SDS011;36226;53.464;9.852;2022-10-26T14:34:16;3.88;;;0.90;;
50319;SDS011;36226;53.464;9.852;2022-10-26T14:41:50;1.13;;;0.60;;
50319;SDS011;36226;53.464;9.852;2022-10-26T14:44:19;6.95;;;1.02;;
50319;SDS011;36226;53.464;9.852;2022-10-26T14:46:45;1.63;;;1.00;;
50319;SDS011;36226;53.464;9.852;2022-10-26T14:49:21;4.63;;;0.80;;
50319;SDS011;36226;53.464;9.852;2022-10-26T14:51:48;3.05;;;0.80;;
50319;SDS011;36226;53.464;9.852;2022-10-26T14:54:21;3.28;;;0.90;;
50319;SDS011;36226;53.464;9.852;2022-10-26T14:56:48;1.67;;;0.80;;
50319;SDS011;36226;53.464;9.852;2022-10-26T15:01:49;6.57;;;2.17;;
50319;SDS011;36226;53.464;9.852;2022-10-26T15:04:29;5.97;;;1.00;;
50319;SDS011;36226;53.464;9.852;2022-10-26T15:09:40;2.55;;;0.70;;
50319;SDS011;36226;53.464;9.852;2022-10-26T15:17:42;3.83;;;1.02;;
50319;SDS011;36226;53.464;9.852;2022-10-26T15:20:22;5.03;;;1.20;;
50319;SDS011;36226;53.464;9.852;2022-10-26T15:22:52;4.78;;;1.02;;
50319;SDS011;36226;53.464;9.852;2022-10-26T15:25:22;1.80;;;0.80;;
50319;SDS011;36226;53.464;9.852;2022-10-26T15:27:50;3.13;;;0.73;;
50319;SDS011;36226;53.464;9.852;2022-10-26T15:30:25;4.70;;;0.95;;
50319;SDS011;36226;53.464;9.852;2022-10-26T15:32:52;5.45;;;1.00;;
50319;SDS011;36226;53.464;9.852;2022-10-26T15:37:46;5.88;;;1.02;;
50319;SDS011;36226;53.464;9.852;2022-10-26T17:24:03;3.55;;;1.90;;
50319;SDS011;36226;53.464;9.852;2022-10-26T18:38:41;4.22;;;1.75;;
50319;SDS011;36226;53.464;9.852;2022-10-26T18:45:29;3.53;;;1.75;;
50319;SDS011;36226;53.464;9.852;2022-10-26T20:50:28;8.70;;;3.90;;
50319;SDS011;36226;53.464;9.852;2022-10-26T21:31:01;11.50;;;6.40;;
50319;SDS011;36226;53.464;9.852;2022-10-26T21:33:27;8.18;;;6.00;;
50319;SDS011;36226;53.464;9.852;2022-10-26T21:35:56;13.57;;;5.97;;
50319;SDS011;36226;53.464;9.852;2022-10-26T21:38:25;14.60;;;6.43;;
50319;SDS011;36226;53.464;9.852;2022-10-26T21:41:00;10.27;;;6.07;;
50319;SDS011;36226;53.464;9.852;2022-10-26T21:43:26;13.75;;;6.18;;
50319;SDS011;36226;53.464;9.852;2022-10-26T21:45:55;10.18;;;6.68;;
50319;SDS011;36226;53.464;9.852;2022-10-26T21:48:22;9.77;;;6.45;;
50319;SDS011;36226;53.464;9.852;2022-10-26T21:50:47;10.18;;;5.85;;
50319;SDS011;36226;53.464;9.852;2022-10-26T21:53:13;13.32;;;6.25;;
50319;SDS011;36226;53.464;9.852;2022-10-26T21:55:38;9.63;;;5.80;;
50319;SDS011;36226;53.464;9.852;2022-10-26T21:58:03;18.90;;;6.60;;
50319;SDS011;36226;53.464;9.852;2022-10-26T22:00:29;15.00;;;7.03;;
50319;SDS011;36226;53.464;9.852;2022-10-26T22:02:54;10.93;;;6.32;;
50319;SDS011;36226;53.464;9.852;2022-10-26T22:05:19;16.10;;;6.60;;
50319;SDS011;36226;53.464;9.852;2022-10-26T22:07:45;14.40;;;7.35;;
50319;SDS011;36226;53.464;9.852;2022-10-26T22:10:10;13.63;;;7.07;;
50319;SDS011;36226;53.464;9.852;2022-10-26T22:12:35;10.18;;;6.70;;
50319;SDS011;36226;53.464;9.852;2022-10-26T22:15:01;11.00;;;6.63;;
50319;SDS011;36226;53.464;9.852;2022-10-26T22:17:26;13.90;;;7.15;;
50319;SDS011;36226;53.464;9.852;2022-10-26T22:19:51;11.98;;;6.55;;
50319;SDS011;36226;53.464;9.852;2022-10-26T22:22:16;13.10;;;6.60;;
50319;SDS011;36226;53.464;9.852;2022-10-26T22:24:42;12.20;;;6.90;;
50319;SDS011;36226;53.464;9.852;2022-10-26T22:27:07;11.70;;;6.45;;
50319;SDS011;36226;53.464;9.852;2022-10-26T22:29:32;12.07;;;6.68;;
50319;SDS011;36226;53.464;9.852;2022-10-26T22:31:58;15.50;;;7.32;;
50319;SDS011;36226;53.464;9.852;2022-10-26T22:34:23;13.40;;;7.28;;
50319;SDS011;36226;53.464;9.852;2022-10-26T22:36:48;11.73;;;7.05;;
50319;SDS011;36226;53.464;9.852;2022-10-26T22:39:14;14.15;;;6.75;;
50319;SDS011;36226;53.464;9.852;2022-10-26T22:41:39;13.43;;;5.97;;
50319;SDS011;36226;53.464;9.852;2022-10-26T22:44:04;13.25;;;7.03;;
50319;SDS011;36226;53.464;9.852;2022-10-26T22:46:30;12.98;;;6.88;;
50319;SDS011;36226;53.464;9.852;2022-10-26T22:48:56;12.48;;;6.63;;
50319;SDS011;36226;53.464;9.852;2022-10-26T22:51:24;15.57;;;6.97;;
50319;SDS011;36226;53.464;9.852;2022-10-26T22:53:51;12.35;;;6.25;;
50319;SDS011;36226;53.464;9.852;2022-10-26T22:56:17;12.55;;;6.60;;
50319;SDS011;36226;53.464;9.852;2022-10-26T22:58:43;11.70;;;6.25;;
50319;SDS011;36226;53.464;9.852;2022-10-26T23:01:09;13.10;;;6.75;;
50319;SDS011;36226;53.464;9.852;2022-10-26T23:03:36;11.10;;;6.60;;
50319;SDS011;36226;53.464;9.852;2022-10-26T23:06:02;13.88;;;6.68;;
50319;SDS011;36226;53.464;9.852;2022-10-26T23:08:28;13.82;;;6.43;;
50319;SDS011;36226;53.464;9.852;2022-10-26T23:10:57;11.98;;;6.40;;
50319;SDS011;36226;53.464;9.852;2022-10-26T23:13:25;11.10;;;6.80;;